sensor_id;sensor_type;location;lat;lon;timestamp;P1;durP1;ratioP1;P2;durP2;ratioP2
16820;SDS011;8527;49.740;6.604;2024-02-28T00:04:22;35.30;;;18.83;;
16820;SDS011;8527;49.740;6.604;2024-02-28T00:09:23;35.72;;;19.45;;
16820;SDS011;8527;49.740;6.604;2024-02-28T00:14:22;36.47;;;19.48;;
16820;SDS011;8527;49.740;6.604;2024-02-28T00:19:21;33.17;;;18.70;;
16820;SDS011;8527;49.740;6.604;2024-02-28T00:24:23;36.60;;;18.80;;
16820;SDS011;8527;49.740;6.604;2024-02-28T00:29:24;36.15;;;19.50;;
16820;SDS011;8527;49.740;6.604;2024-02-28T00:34:23;37.88;;;18.90;;
16820;SDS011;8527;49.740;6.604;2024-02-28T00:39:31;34.92;;;18.80;;
16820;SDS011;8527;49.740;6.604;2024-02-28T00:44:29;35.42;;;18.35;;
16820;SDS011;8527;49.740;6.604;2024-02-28T00:49:31;36.83;;;18.48;;
16820;SDS011;8527;49.740;6.604;2024-02-28T00:54:32;37.55;;;19.35;;
16820;SDS011;8527;49.740;6.604;2024-02-28T00:59:34;35.20;;;18.73;;
16820;SDS011;8527;49.740;6.604;2024-02-28T01:04:32;31.42;;;17.65;;
16820;SDS011;8527;49.740;6.604;2024-02-28T01:09:37;34.70;;;19.25;;
16820;SDS011;8527;49.740;6.604;2024-02-28T01:14:35;35.88;;;19.35;;
16820;SDS011;8527;49.740;6.604;2024-02-28T01:19:34;37.60;;;18.92;;
16820;SDS011;8527;49.740;6.604;2024-02-28T01:24:32;33.83;;;18.20;;
16820;SDS011;8527;49.740;6.604;2024-02-28T01:29:36;34.70;;;19.20;;
16820;SDS011;8527;49.740;6.604;2024-02-28T01:34:35;36.10;;;19.30;;
16820;SDS011;8527;49.740;6.604;2024-02-28T01:39:38;39.10;;;19.80;;
16820;SDS011;8527;49.740;6.604;2024-02-28T01:44:38;38.25;;;19.02;;
16820;SDS011;8527;49.740;6.604;2024-02-28T01:49:41;37.28;;;19.83;;
16820;SDS011;8527;49.740;6.604;2024-02-28T01:54:47;37.38;;;18.90;;
16820;SDS011;8527;49.740;6.604;2024-02-28T01:59:52;32.80;;;19.00;;
16820;SDS011;8527;49.740;6.604;2024-02-28T02:04:55;36.35;;;19.83;;
16820;SDS011;8527;49.740;6.604;2024-02-28T02:09:57;37.97;;;19.05;;
16820;SDS011;8527;49.740;6.604;2024-02-28T02:14:55;38.75;;;18.92;;
16820;SDS011;8527;49.740;6.604;2024-02-28T02:19:58;37.47;;;19.27;;
16820;SDS011;8527;49.740;6.604;2024-02-28T02:24:59;36.95;;;19.58;;
16820;SDS011;8527;49.740;6.604;2024-02-28T02:30:10;40.22;;;19.65;;
16820;SDS011;8527;49.740;6.604;2024-02-28T02:35:09;37.30;;;19.33;;
16820;SDS011;8527;49.740;6.604;2024-02-28T02:40:13;40.40;;;19.90;;
16820;SDS011;8527;49.740;6.604;2024-02-28T02:45:15;37.05;;;18.40;;
16820;SDS011;8527;49.740;6.604;2024-02-28T02:50:37;33.00;;;18.27;;
16820;SDS011;8527;49.740;6.604;2024-02-28T02:55:43;38.00;;;20.80;;
16820;SDS011;8527;49.740;6.604;2024-02-28T03:00:41;41.53;;;19.42;;
16820;SDS011;8527;49.740;6.604;2024-02-28T03:05:39;36.00;;;19.15;;
16820;SDS011;8527;49.740;6.604;2024-02-28T03:10:43;40.63;;;19.33;;
16820;SDS011;8527;49.740;6.604;2024-02-28T03:15:44;38.10;;;18.40;;
16820;SDS011;8527;49.740;6.604;2024-02-28T03:20:43;38.97;;;19.45;;
16820;SDS011;8527;49.740;6.604;2024-02-28T03:25:44;36.95;;;18.92;;
16820;SDS011;8527;49.740;6.604;2024-02-28T03:30:43;41.63;;;18.10;;
16820;SDS011;8527;49.740;6.604;2024-02-28T03:35:42;35.88;;;17.52;;
16820;SDS011;8527;49.740;6.604;2024-02-28T03:40:46;38.20;;;17.88;;
16820;SDS011;8527;49.740;6.604;2024-02-28T03:45:45;38.03;;;18.83;;
16820;SDS011;8527;49.740;6.604;2024-02-28T03:50:44;38.25;;;18.25;;
16820;SDS011;8527;49.740;6.604;2024-02-28T03:55:47;39.20;;;18.95;;
16820;SDS011;8527;49.740;6.604;2024-02-28T04:00:45;37.80;;;18.08;;
16820;SDS011;8527;49.740;6.604;2024-02-28T04:05:44;35.78;;;17.23;;
16820;SDS011;8527;49.740;6.604;2024-02-28T04:10:42;41.35;;;18.15;;
16820;SDS011;8527;49.740;6.604;2024-02-28T04:15:44;40.15;;;18.35;;
16820;SDS011;8527;49.740;6.604;2024-02-28T04:20:45;37.33;;;18.13;;
16820;SDS011;8527;49.740;6.604;2024-02-28T04:25:44;38.67;;;18.38;;
16820;SDS011;8527;49.740;6.604;2024-02-28T04:30:46;40.58;;;19.60;;
16820;SDS011;8527;49.740;6.604;2024-02-28T04:35:57;42.13;;;18.85;;
16820;SDS011;8527;49.740;6.604;2024-02-28T04:40:58;44.13;;;18.90;;
16820;SDS011;8527;49.740;6.604;2024-02-28T04:46:01;43.47;;;19.75;;
16820;SDS011;8527;49.740;6.604;2024-02-28T04:51:04;39.78;;;20.23;;
16820;SDS011;8527;49.740;6.604;2024-02-28T04:56:03;35.42;;;17.70;;
16820;SDS011;8527;49.740;6.604;2024-02-28T05:01:05;43.13;;;19.65;;
16820;SDS011;8527;49.740;6.604;2024-02-28T05:06:04;39.65;;;18.60;;
16820;SDS011;8527;49.740;6.604;2024-02-28T05:11:06;45.65;;;18.63;;
16820;SDS011;8527;49.740;6.604;2024-02-28T05:16:14;39.28;;;18.67;;
16820;SDS011;8527;49.740;6.604;2024-02-28T05:21:20;38.63;;;17.98;;
16820;SDS011;8527;49.740;6.604;2024-02-28T05:26:20;37.25;;;18.65;;
16820;SDS011;8527;49.740;6.604;2024-02-28T05:31:24;38.20;;;18.70;;
16820;SDS011;8527;49.740;6.604;2024-02-28T05:36:24;39.28;;;17.95;;
16820;SDS011;8527;49.740;6.604;2024-02-28T05:41:34;48.43;;;18.80;;
16820;SDS011;8527;49.740;6.604;2024-02-28T05:46:36;41.78;;;20.13;;
16820;SDS011;8527;49.740;6.604;2024-02-28T05:51:35;36.03;;;17.15;;
16820;SDS011;8527;49.740;6.604;2024-02-28T05:56:33;40.30;;;18.35;;
16820;SDS011;8527;49.740;6.604;2024-02-28T06:01:32;38.78;;;17.92;;
16820;SDS011;8527;49.740;6.604;2024-02-28T06:06:35;38.15;;;19.13;;
16820;SDS011;8527;49.740;6.604;2024-02-28T06:11:38;38.70;;;19.08;;
16820;SDS011;8527;49.740;6.604;2024-02-28T06:16:40;40.60;;;18.63;;
16820;SDS011;8527;49.740;6.604;2024-02-28T06:21:47;37.10;;;18.38;;
16820;SDS011;8527;49.740;6.604;2024-02-28T06:26:46;43.30;;;19.13;;
16820;SDS011;8527;49.740;6.604;2024-02-28T06:31:44;38.33;;;18.17;;
16820;SDS011;8527;49.740;6.604;2024-02-28T06:36:54;43.40;;;18.77;;
16820;SDS011;8527;49.740;6.604;2024-02-28T06:41:53;39.97;;;18.75;;
16820;SDS011;8527;49.740;6.604;2024-02-28T06:46:54;43.40;;;19.42;;
16820;SDS011;8527;49.740;6.604;2024-02-28T06:51:58;39.05;;;17.55;;
16820;SDS011;8527;49.740;6.604;2024-02-28T06:56:59;38.50;;;17.52;;
16820;SDS011;8527;49.740;6.604;2024-02-28T07:02:06;44.37;;;19.40;;
16820;SDS011;8527;49.740;6.604;2024-02-28T07:07:07;41.78;;;19.13;;
16820;SDS011;8527;49.740;6.604;2024-02-28T07:12:07;41.20;;;18.98;;
16820;SDS011;8527;49.740;6.604;2024-02-28T07:17:05;41.10;;;19.05;;
16820;SDS011;8527;49.740;6.604;2024-02-28T07:22:08;45.55;;;20.23;;
16820;SDS011;8527;49.740;6.604;2024-02-28T07:27:06;39.13;;;18.23;;
16820;SDS011;8527;49.740;6.604;2024-02-28T07:32:08;37.42;;;17.90;;
16820;SDS011;8527;49.740;6.604;2024-02-28T07:37:10;40.25;;;19.88;;
16820;SDS011;8527;49.740;6.604;2024-02-28T07:42:08;39.25;;;19.25;;
16820;SDS011;8527;49.740;6.604;2024-02-28T07:47:07;40.92;;;18.67;;
16820;SDS011;8527;49.740;6.604;2024-02-28T07:52:15;49.85;;;19.95;;
16820;SDS011;8527;49.740;6.604;2024-02-28T07:57:17;46.25;;;21.42;;
16820;SDS011;8527;49.740;6.604;2024-02-28T08:02:16;38.80;;;19.33;;
16820;SDS011;8527;49.740;6.604;2024-02-28T08:07:18;50.72;;;20.80;;
16820;SDS011;8527;49.740;6.604;2024-02-28T08:12:17;47.42;;;20.73;;
16820;SDS011;8527;49.740;6.604;2024-02-28T08:17:15;40.92;;;19.98;;
16820;SDS011;8527;49.740;6.604;2024-02-28T08:22:13;41.60;;;18.80;;
16820;SDS011;8527;49.740;6.604;2024-02-28T08:27:14;44.67;;;20.13;;
16820;SDS011;8527;49.740;6.604;2024-02-28T08:32:13;50.80;;;19.95;;
16820;SDS011;8527;49.740;6.604;2024-02-28T08:37:12;43.95;;;20.52;;
16820;SDS011;8527;49.740;6.604;2024-02-28T08:42:14;44.83;;;20.05;;
16820;SDS011;8527;49.740;6.604;2024-02-28T08:47:13;45.35;;;19.85;;
16820;SDS011;8527;49.740;6.604;2024-02-28T08:52:11;42.50;;;19.20;;
16820;SDS011;8527;49.740;6.604;2024-02-28T08:57:10;42.50;;;20.23;;
16820;SDS011;8527;49.740;6.604;2024-02-28T09:02:11;39.22;;;19.65;;
16820;SDS011;8527;49.740;6.604;2024-02-28T09:07:10;39.67;;;18.52;;
16820;SDS011;8527;49.740;6.604;2024-02-28T09:12:09;41.00;;;19.02;;
16820;SDS011;8527;49.740;6.604;2024-02-28T09:17:11;43.67;;;19.75;;
16820;SDS011;8527;49.740;6.604;2024-02-28T09:22:11;44.05;;;19.20;;
16820;SDS011;8527;49.740;6.604;2024-02-28T09:27:13;42.75;;;19.85;;
16820;SDS011;8527;49.740;6.604;2024-02-28T09:32:17;42.00;;;19.70;;
16820;SDS011;8527;49.740;6.604;2024-02-28T09:37:15;36.92;;;18.48;;
16820;SDS011;8527;49.740;6.604;2024-02-28T09:42:19;40.10;;;18.15;;
16820;SDS011;8527;49.740;6.604;2024-02-28T09:47:21;41.95;;;19.70;;
16820;SDS011;8527;49.740;6.604;2024-02-28T09:52:20;39.38;;;18.52;;
16820;SDS011;8527;49.740;6.604;2024-02-28T09:57:28;39.10;;;19.00;;
16820;SDS011;8527;49.740;6.604;2024-02-28T10:02:32;41.78;;;18.98;;
16820;SDS011;8527;49.740;6.604;2024-02-28T10:07:32;44.00;;;18.48;;
16820;SDS011;8527;49.740;6.604;2024-02-28T10:12:30;41.75;;;18.40;;
16820;SDS011;8527;49.740;6.604;2024-02-28T10:17:31;43.30;;;17.80;;
16820;SDS011;8527;49.740;6.604;2024-02-28T10:22:33;39.13;;;15.43;;
16820;SDS011;8527;49.740;6.604;2024-02-28T10:27:32;35.28;;;15.68;;
16820;SDS011;8527;49.740;6.604;2024-02-28T10:32:34;34.72;;;15.95;;
16820;SDS011;8527;49.740;6.604;2024-02-28T10:37:46;33.50;;;14.38;;
16820;SDS011;8527;49.740;6.604;2024-02-28T10:42:50;33.20;;;13.88;;
16820;SDS011;8527;49.740;6.604;2024-02-28T10:47:56;30.38;;;13.68;;
16820;SDS011;8527;49.740;6.604;2024-02-28T10:52:55;28.27;;;13.48;;
16820;SDS011;8527;49.740;6.604;2024-02-28T10:57:58;34.40;;;14.93;;
16820;SDS011;8527;49.740;6.604;2024-02-28T11:03:05;30.80;;;13.88;;
16820;SDS011;8527;49.740;6.604;2024-02-28T11:08:08;30.80;;;13.73;;
16820;SDS011;8527;49.740;6.604;2024-02-28T11:13:07;31.77;;;13.82;;
16820;SDS011;8527;49.740;6.604;2024-02-28T11:18:12;26.90;;;13.35;;
16820;SDS011;8527;49.740;6.604;2024-02-28T11:23:11;25.88;;;13.50;;
16820;SDS011;8527;49.740;6.604;2024-02-28T11:28:09;30.83;;;14.07;;
16820;SDS011;8527;49.740;6.604;2024-02-28T11:33:15;27.73;;;13.00;;
16820;SDS011;8527;49.740;6.604;2024-02-28T11:38:19;30.02;;;13.45;;
16820;SDS011;8527;49.740;6.604;2024-02-28T11:43:17;28.35;;;13.05;;
16820;SDS011;8527;49.740;6.604;2024-02-28T11:48:18;28.58;;;13.63;;
16820;SDS011;8527;49.740;6.604;2024-02-28T11:53:17;26.73;;;13.20;;
16820;SDS011;8527;49.740;6.604;2024-02-28T11:58:20;31.45;;;14.75;;
16820;SDS011;8527;49.740;6.604;2024-02-28T12:03:25;27.85;;;13.50;;
16820;SDS011;8527;49.740;6.604;2024-02-28T12:08:29;29.70;;;14.13;;
16820;SDS011;8527;49.740;6.604;2024-02-28T12:13:28;29.88;;;13.80;;
16820;SDS011;8527;49.740;6.604;2024-02-28T12:18:30;26.00;;;14.05;;
16820;SDS011;8527;49.740;6.604;2024-02-28T12:23:31;33.45;;;15.25;;
16820;SDS011;8527;49.740;6.604;2024-02-28T12:28:37;30.25;;;14.80;;
16820;SDS011;8527;49.740;6.604;2024-02-28T12:33:38;27.20;;;14.57;;
16820;SDS011;8527;49.740;6.604;2024-02-28T12:38:37;32.17;;;15.45;;
16820;SDS011;8527;49.740;6.604;2024-02-28T12:43:40;29.25;;;14.82;;
16820;SDS011;8527;49.740;6.604;2024-02-28T12:48:47;32.70;;;15.90;;
16820;SDS011;8527;49.740;6.604;2024-02-28T12:53:46;29.25;;;15.02;;
16820;SDS011;8527;49.740;6.604;2024-02-28T12:58:44;27.65;;;14.27;;
16820;SDS011;8527;49.740;6.604;2024-02-28T13:03:43;27.48;;;14.18;;
16820;SDS011;8527;49.740;6.604;2024-02-28T13:08:45;26.77;;;14.10;;
16820;SDS011;8527;49.740;6.604;2024-02-28T13:13:48;27.48;;;13.73;;
16820;SDS011;8527;49.740;6.604;2024-02-28T13:18:49;23.52;;;13.20;;
16820;SDS011;8527;49.740;6.604;2024-02-28T13:23:52;31.73;;;13.82;;
16820;SDS011;8527;49.740;6.604;2024-02-28T13:28:54;23.92;;;12.25;;
16820;SDS011;8527;49.740;6.604;2024-02-28T13:33:52;24.98;;;13.63;;
16820;SDS011;8527;49.740;6.604;2024-02-28T13:38:55;24.92;;;13.18;;
16820;SDS011;8527;49.740;6.604;2024-02-28T13:43:54;24.33;;;12.68;;
16820;SDS011;8527;49.740;6.604;2024-02-28T13:48:53;27.77;;;12.73;;
16820;SDS011;8527;49.740;6.604;2024-02-28T13:53:51;22.27;;;10.80;;
16820;SDS011;8527;49.740;6.604;2024-02-28T13:58:52;20.38;;;11.15;;
16820;SDS011;8527;49.740;6.604;2024-02-28T14:03:51;27.70;;;11.98;;
16820;SDS011;8527;49.740;6.604;2024-02-28T14:08:49;23.40;;;12.13;;
16820;SDS011;8527;49.740;6.604;2024-02-28T14:13:49;23.38;;;11.85;;
16820;SDS011;8527;49.740;6.604;2024-02-28T14:18:50;20.48;;;10.20;;
16820;SDS011;8527;49.740;6.604;2024-02-28T14:23:49;21.45;;;10.98;;
16820;SDS011;8527;49.740;6.604;2024-02-28T14:28:48;16.65;;;9.07;;
16820;SDS011;8527;49.740;6.604;2024-02-28T14:33:50;18.98;;;9.93;;
16820;SDS011;8527;49.740;6.604;2024-02-28T14:38:50;21.33;;;11.27;;
16820;SDS011;8527;49.740;6.604;2024-02-28T14:43:48;23.20;;;11.43;;
16820;SDS011;8527;49.740;6.604;2024-02-28T14:48:46;21.13;;;11.10;;
16820;SDS011;8527;49.740;6.604;2024-02-28T14:53:49;22.75;;;11.05;;
16820;SDS011;8527;49.740;6.604;2024-02-28T14:58:47;23.00;;;11.48;;
16820;SDS011;8527;49.740;6.604;2024-02-28T15:03:46;23.40;;;11.65;;
16820;SDS011;8527;49.740;6.604;2024-02-28T15:08:47;25.48;;;13.23;;
16820;SDS011;8527;49.740;6.604;2024-02-28T15:13:46;23.27;;;11.90;;
16820;SDS011;8527;49.740;6.604;2024-02-28T15:18:44;27.90;;;13.85;;
16820;SDS011;8527;49.740;6.604;2024-02-28T15:23:42;26.85;;;12.52;;
16820;SDS011;8527;49.740;6.604;2024-02-28T15:28:43;27.38;;;12.57;;
16820;SDS011;8527;49.740;6.604;2024-02-28T15:33:42;24.25;;;12.23;;
16820;SDS011;8527;49.740;6.604;2024-02-28T15:38:44;20.92;;;11.60;;
16820;SDS011;8527;49.740;6.604;2024-02-28T15:43:48;22.67;;;11.98;;
16820;SDS011;8527;49.740;6.604;2024-02-28T15:48:47;20.70;;;11.50;;
16820;SDS011;8527;49.740;6.604;2024-02-28T15:53:46;23.90;;;11.77;;
16820;SDS011;8527;49.740;6.604;2024-02-28T15:58:48;25.10;;;12.00;;
16820;SDS011;8527;49.740;6.604;2024-02-28T16:03:46;23.30;;;12.18;;
16820;SDS011;8527;49.740;6.604;2024-02-28T16:08:45;21.77;;;11.05;;
16820;SDS011;8527;49.740;6.604;2024-02-28T16:13:46;23.98;;;10.50;;
16820;SDS011;8527;49.740;6.604;2024-02-28T16:18:47;19.90;;;10.20;;
16820;SDS011;8527;49.740;6.604;2024-02-28T16:23:46;20.50;;;10.13;;
16820;SDS011;8527;49.740;6.604;2024-02-28T16:28:44;16.23;;;9.57;;
16820;SDS011;8527;49.740;6.604;2024-02-28T16:33:51;20.25;;;9.75;;
16820;SDS011;8527;49.740;6.604;2024-02-28T16:38:49;17.52;;;9.23;;
16820;SDS011;8527;49.740;6.604;2024-02-28T16:43:49;18.05;;;9.10;;
16820;SDS011;8527;49.740;6.604;2024-02-28T16:48:52;19.23;;;9.23;;
16820;SDS011;8527;49.740;6.604;2024-02-28T16:53:50;18.35;;;9.32;;
16820;SDS011;8527;49.740;6.604;2024-02-28T16:58:49;19.30;;;9.60;;
16820;SDS011;8527;49.740;6.604;2024-02-28T17:03:47;25.40;;;12.38;;
16820;SDS011;8527;49.740;6.604;2024-02-28T17:08:49;32.38;;;15.27;;
16820;SDS011;8527;49.740;6.604;2024-02-28T17:13:48;19.13;;;10.27;;
16820;SDS011;8527;49.740;6.604;2024-02-28T17:18:46;17.35;;;9.13;;
16820;SDS011;8527;49.740;6.604;2024-02-28T17:23:50;17.95;;;8.80;;
16820;SDS011;8527;49.740;6.604;2024-02-28T17:28:49;16.00;;;8.13;;
16820;SDS011;8527;49.740;6.604;2024-02-28T17:33:49;19.02;;;8.43;;
16820;SDS011;8527;49.740;6.604;2024-02-28T17:38:54;20.65;;;8.57;;
16820;SDS011;8527;49.740;6.604;2024-02-28T17:43:52;17.95;;;9.02;;
16820;SDS011;8527;49.740;6.604;2024-02-28T17:48:51;17.08;;;8.77;;
16820;SDS011;8527;49.740;6.604;2024-02-28T17:53:55;17.35;;;9.57;;
16820;SDS011;8527;49.740;6.604;2024-02-28T17:59:06;20.70;;;9.68;;
16820;SDS011;8527;49.740;6.604;2024-02-28T18:04:07;19.88;;;9.35;;
16820;SDS011;8527;49.740;6.604;2024-02-28T18:09:08;20.48;;;9.52;;
16820;SDS011;8527;49.740;6.604;2024-02-28T18:14:07;26.23;;;14.55;;
16820;SDS011;8527;49.740;6.604;2024-02-28T18:19:06;20.10;;;9.50;;
16820;SDS011;8527;49.740;6.604;2024-02-28T18:24:08;20.05;;;9.73;;
16820;SDS011;8527;49.740;6.604;2024-02-28T18:29:08;21.70;;;10.25;;
16820;SDS011;8527;49.740;6.604;2024-02-28T18:34:09;19.88;;;9.48;;
16820;SDS011;8527;49.740;6.604;2024-02-28T18:39:12;25.02;;;10.43;;
16820;SDS011;8527;49.740;6.604;2024-02-28T18:44:12;19.83;;;10.20;;
16820;SDS011;8527;49.740;6.604;2024-02-28T18:49:13;21.58;;;10.05;;
16820;SDS011;8527;49.740;6.604;2024-02-28T18:54:14;22.52;;;11.50;;
16820;SDS011;8527;49.740;6.604;2024-02-28T18:59:13;21.70;;;10.30;;
16820;SDS011;8527;49.740;6.604;2024-02-28T19:04:15;27.38;;;14.13;;
16820;SDS011;8527;49.740;6.604;2024-02-28T19:09:19;27.13;;;13.00;;
16820;SDS011;8527;49.740;6.604;2024-02-28T19:14:18;29.35;;;13.02;;
16820;SDS011;8527;49.740;6.604;2024-02-28T19:19:16;24.30;;;12.32;;
16820;SDS011;8527;49.740;6.604;2024-02-28T19:24:15;26.55;;;12.00;;
16820;SDS011;8527;49.740;6.604;2024-02-28T19:29:17;28.45;;;12.68;;
16820;SDS011;8527;49.740;6.604;2024-02-28T19:34:21;30.40;;;13.52;;
16820;SDS011;8527;49.740;6.604;2024-02-28T19:39:19;32.63;;;15.88;;
16820;SDS011;8527;49.740;6.604;2024-02-28T19:44:20;30.40;;;15.80;;
16820;SDS011;8527;49.740;6.604;2024-02-28T19:49:19;31.48;;;14.02;;
16820;SDS011;8527;49.740;6.604;2024-02-28T19:54:18;26.30;;;12.57;;
16820;SDS011;8527;49.740;6.604;2024-02-28T19:59:16;28.25;;;13.57;;
16820;SDS011;8527;49.740;6.604;2024-02-28T20:04:24;36.47;;;14.73;;
16820;SDS011;8527;49.740;6.604;2024-02-28T20:09:22;32.17;;;15.48;;
16820;SDS011;8527;49.740;6.604;2024-02-28T20:14:26;37.95;;;19.27;;
16820;SDS011;8527;49.740;6.604;2024-02-28T20:19:28;34.42;;;16.83;;
16820;SDS011;8527;49.740;6.604;2024-02-28T20:24:27;31.83;;;14.07;;
16820;SDS011;8527;49.740;6.604;2024-02-28T20:29:29;34.25;;;14.07;;
16820;SDS011;8527;49.740;6.604;2024-02-28T20:34:29;28.60;;;13.25;;
16820;SDS011;8527;49.740;6.604;2024-02-28T20:39:30;38.55;;;13.90;;
16820;SDS011;8527;49.740;6.604;2024-02-28T20:44:31;29.02;;;13.75;;
16820;SDS011;8527;49.740;6.604;2024-02-28T20:49:30;24.33;;;12.40;;
16820;SDS011;8527;49.740;6.604;2024-02-28T20:54:29;28.70;;;13.43;;
16820;SDS011;8527;49.740;6.604;2024-02-28T20:59:32;31.30;;;13.68;;
16820;SDS011;8527;49.740;6.604;2024-02-28T21:04:33;40.42;;;16.65;;
16820;SDS011;8527;49.740;6.604;2024-02-28T21:09:32;33.65;;;14.82;;
16820;SDS011;8527;49.740;6.604;2024-02-28T21:14:39;36.47;;;14.35;;
16820;SDS011;8527;49.740;6.604;2024-02-28T21:19:41;34.30;;;14.68;;
16820;SDS011;8527;49.740;6.604;2024-02-28T21:24:41;30.08;;;13.27;;
16820;SDS011;8527;49.740;6.604;2024-02-28T21:29:43;35.03;;;14.85;;
16820;SDS011;8527;49.740;6.604;2024-02-28T21:34:41;31.80;;;14.23;;
16820;SDS011;8527;49.740;6.604;2024-02-28T21:39:40;34.25;;;14.38;;
16820;SDS011;8527;49.740;6.604;2024-02-28T21:44:46;38.78;;;15.73;;
16820;SDS011;8527;49.740;6.604;2024-02-28T21:49:46;38.85;;;16.25;;
16820;SDS011;8527;49.740;6.604;2024-02-28T21:54:45;43.03;;;16.75;;
16820;SDS011;8527;49.740;6.604;2024-02-28T21:59:47;42.25;;;16.75;;
16820;SDS011;8527;49.740;6.604;2024-02-28T22:04:52;42.28;;;16.17;;
16820;SDS011;8527;49.740;6.604;2024-02-28T22:09:50;35.75;;;15.23;;
16820;SDS011;8527;49.740;6.604;2024-02-28T22:14:59;40.75;;;15.88;;
16820;SDS011;8527;49.740;6.604;2024-02-28T22:19:59;38.00;;;16.42;;
16820;SDS011;8527;49.740;6.604;2024-02-28T22:24:58;42.17;;;17.92;;
16820;SDS011;8527;49.740;6.604;2024-02-28T22:29:59;47.05;;;19.25;;
16820;SDS011;8527;49.740;6.604;2024-02-28T22:35:02;48.25;;;21.10;;
16820;SDS011;8527;49.740;6.604;2024-02-28T22:40:02;52.88;;;21.85;;
16820;SDS011;8527;49.740;6.604;2024-02-28T22:45:05;57.75;;;22.60;;
16820;SDS011;8527;49.740;6.604;2024-02-28T22:50:06;53.45;;;22.35;;
16820;SDS011;8527;49.740;6.604;2024-02-28T22:55:10;56.35;;;23.25;;
16820;SDS011;8527;49.740;6.604;2024-02-28T23:00:19;56.50;;;22.07;;
16820;SDS011;8527;49.740;6.604;2024-02-28T23:05:33;56.33;;;21.85;;
16820;SDS011;8527;49.740;6.604;2024-02-28T23:10:32;52.45;;;22.15;;
16820;SDS011;8527;49.740;6.604;2024-02-28T23:15:35;49.58;;;20.60;;
16820;SDS011;8527;49.740;6.604;2024-02-28T23:20:35;54.38;;;21.95;;
16820;SDS011;8527;49.740;6.604;2024-02-28T23:25:34;55.47;;;21.13;;
16820;SDS011;8527;49.740;6.604;2024-02-28T23:30:36;49.85;;;21.17;;
16820;SDS011;8527;49.740;6.604;2024-02-28T23:35:35;54.30;;;21.55;;
16820;SDS011;8527;49.740;6.604;2024-02-28T23:40:35;54.85;;;22.08;;
16820;SDS011;8527;49.740;6.604;2024-02-28T23:45:37;53.55;;;20.75;;
16820;SDS011;8527;49.740;6.604;2024-02-28T23:50:47;48.72;;;20.77;;
16820;SDS011;8527;49.740;6.604;2024-02-28T23:55:46;49.78;;;20.67;;
